4WN2 weather

Swensen Airport
Vesper, Wisconsin, United States

Public forecast

Using degrees Fahrenheit for public forecast. Weather courtesy of forecast.io.

Closest aviation weather report (METAR) to Swensen Airport

Closest report is Alexander Field South Wood County Airport, 7.2 nm (13.3 km) ESE. Retrieved 2020/02/22 20:54 UTC (59 minutes ago):

KISW 222054Z AUTO 22009G16KT 10SM CLR 06/M04 A2998 RMK AO2 SLP165 T00611039 56024

Closest aviation forecast (TAF) to Swensen Airport

Closest forecast is Central Wisconsin Airport, 25.6 nm (47.4 km) NNE. Retrieved 2020/02/22 18:27 UTC (3 hours ago):

TAF KCWA 221723Z 2218/2318 21006KT P6SM SKC FM230800 22006KT 5SM BR SCT005 TEMPO 2310/2314 3SM BR BKN005 FM231400 24007KT 5SM BR BKN006 WS020/28035KT FM231600 25009G17KT P6SM SCT007 WS020/28035KT